createdAt,value
2018-11-10T00:00:42.779Z,8.60
2018-11-10T00:03:11.207Z,8.60
2018-11-10T00:05:39.640Z,8.60
2018-11-10T00:08:08.154Z,8.60
2018-11-10T00:10:36.557Z,8.70
2018-11-10T00:13:05.289Z,8.70
2018-11-10T00:15:33.708Z,8.70
2018-11-10T00:18:02.166Z,8.60
2018-11-10T00:20:30.568Z,8.60
2018-11-10T00:22:59.012Z,8.60
2018-11-10T00:25:27.420Z,8.60
2018-11-10T00:27:55.928Z,8.60
2018-11-10T00:30:24.360Z,8.60
2018-11-10T00:32:52.809Z,8.60
2018-11-10T00:35:21.241Z,8.50
2018-11-10T00:37:49.714Z,8.50
2018-11-10T00:40:18.141Z,8.50
2018-11-10T00:42:46.700Z,8.50
2018-11-10T00:45:15.163Z,8.60
2018-11-10T00:47:43.627Z,8.50
2018-11-10T00:50:12.072Z,8.50
2018-11-10T00:52:40.564Z,8.50
2018-11-10T00:55:09.223Z,8.50
2018-11-10T00:57:37.667Z,8.50
2018-11-10T01:00:06.571Z,8.50
2018-11-10T01:02:35.041Z,8.50
2018-11-10T01:05:03.532Z,8.50
2018-11-10T01:07:32.544Z,8.50
2018-11-10T01:10:00.979Z,8.50
2018-11-10T01:12:29.451Z,8.50
2018-11-10T01:14:57.985Z,8.40
2018-11-10T01:17:26.413Z,8.40
2018-11-10T01:19:54.853Z,8.50
2018-11-10T01:22:23.272Z,8.50
2018-11-10T01:24:51.704Z,8.50
2018-11-10T01:27:20.148Z,8.50
2018-11-10T01:29:48.627Z,8.50
2018-11-10T01:32:17.102Z,8.50
2018-11-10T01:34:45.528Z,8.50
2018-11-10T01:37:13.976Z,8.40
2018-11-10T01:39:42.404Z,8.40
2018-11-10T01:42:10.819Z,8.40
2018-11-10T01:44:39.256Z,8.40
2018-11-10T01:47:07.701Z,8.50
2018-11-10T01:49:36.137Z,8.40
2018-11-10T01:52:04.617Z,8.40
2018-11-10T01:54:33.061Z,8.40
2018-11-10T01:57:01.477Z,8.50
2018-11-10T01:59:29.908Z,8.50
2018-11-10T02:01:58.316Z,8.50
2018-11-10T02:04:26.744Z,8.40
2018-11-10T02:06:55.169Z,8.50
2018-11-10T02:09:23.628Z,8.60
2018-11-10T02:11:52.044Z,8.50
2018-11-10T02:14:20.477Z,8.50
2018-11-10T02:16:48.924Z,8.50
2018-11-10T02:19:17.349Z,8.50
2018-11-10T02:21:45.809Z,8.50
2018-11-10T02:24:14.237Z,8.50
2018-11-10T02:26:42.750Z,8.50
2018-11-10T02:29:11.180Z,8.50
2018-11-10T02:31:39.612Z,8.50
2018-11-10T02:34:08.068Z,8.40
2018-11-10T02:36:36.552Z,8.40
2018-11-10T02:39:07.500Z,8.40
2018-11-10T02:41:36.039Z,8.50
2018-11-10T02:44:04.524Z,8.50
2018-11-10T02:46:32.960Z,8.50
2018-11-10T02:49:01.428Z,8.40
2018-11-10T02:51:29.864Z,8.40
2018-11-10T02:53:58.275Z,8.50
2018-11-10T02:56:26.768Z,8.50
2018-11-10T02:58:55.179Z,8.50
2018-11-10T03:01:23.616Z,8.50
2018-11-10T03:03:52.036Z,8.50
2018-11-10T03:06:20.465Z,8.50
2018-11-10T03:08:48.885Z,8.50
2018-11-10T03:11:17.332Z,8.50
2018-11-10T03:13:45.756Z,8.50
2018-11-10T03:16:14.239Z,8.50
2018-11-10T03:18:42.636Z,8.50
2018-11-10T03:21:11.081Z,8.50
2018-11-10T03:23:39.500Z,8.40
2018-11-10T03:26:07.948Z,8.40
2018-11-10T03:28:36.368Z,8.40
2018-11-10T03:31:04.838Z,8.40
2018-11-10T03:33:33.274Z,8.40
2018-11-10T03:36:01.697Z,8.40
2018-11-10T03:38:30.172Z,8.40
2018-11-10T03:40:58.621Z,8.40
2018-11-10T03:43:27.368Z,8.50
2018-11-10T03:45:57.197Z,8.40
2018-11-10T03:48:25.628Z,8.40
2018-11-10T03:50:54.036Z,8.40
2018-11-10T03:53:22.500Z,8.30
2018-11-10T03:55:50.920Z,8.30
2018-11-10T03:58:19.392Z,8.40
2018-11-10T04:00:47.848Z,8.40
2018-11-10T04:03:16.289Z,8.30
2018-11-10T04:05:44.704Z,8.40
2018-11-10T04:08:13.133Z,8.40
2018-11-10T04:10:41.549Z,8.40
2018-11-10T04:13:09.975Z,8.40
2018-11-10T04:15:38.442Z,8.40
2018-11-10T04:18:06.884Z,8.40
2018-11-10T04:20:35.312Z,8.40
2018-11-10T04:23:03.748Z,8.30
2018-11-10T04:25:32.161Z,8.30
2018-11-10T04:28:00.632Z,8.30
2018-11-10T04:30:29.057Z,8.40
2018-11-10T04:32:57.484Z,8.40
2018-11-10T04:35:25.936Z,8.40
2018-11-10T04:37:54.359Z,8.40
2018-11-10T04:40:22.798Z,8.50
2018-11-10T04:42:51.208Z,8.50
2018-11-10T04:45:19.644Z,8.40
2018-11-10T04:47:48.172Z,8.50
2018-11-10T04:50:16.628Z,8.40
2018-11-10T04:52:45.056Z,8.40
2018-11-10T04:55:13.532Z,8.40
2018-11-10T04:57:42.298Z,8.40
2018-11-10T05:00:13.445Z,8.40
2018-11-10T05:02:42.334Z,8.40
2018-11-10T05:05:10.833Z,8.40
2018-11-10T05:07:39.280Z,8.50
2018-11-10T05:10:08.817Z,8.40
2018-11-10T05:12:37.389Z,8.30
2018-11-10T05:15:07.059Z,8.30
2018-11-10T05:17:35.509Z,8.40
2018-11-10T05:20:04.218Z,8.40
2018-11-10T05:22:32.709Z,8.40
2018-11-10T05:25:01.159Z,8.50
2018-11-10T05:27:29.732Z,8.50
2018-11-10T05:29:58.397Z,8.50
2018-11-10T05:32:26.887Z,8.40
2018-11-10T05:34:55.322Z,8.40
2018-11-10T05:37:23.796Z,8.50
2018-11-10T05:39:52.228Z,8.40
2018-11-10T05:42:20.709Z,8.40
2018-11-10T05:44:49.148Z,8.40
2018-11-10T05:47:17.608Z,8.40
2018-11-10T05:49:46.044Z,8.40
2018-11-10T05:52:14.500Z,8.40
2018-11-10T05:54:42.923Z,8.50
2018-11-10T05:57:11.518Z,8.40
2018-11-10T05:59:39.878Z,8.40
2018-11-10T06:02:08.376Z,8.40
2018-11-10T06:04:36.836Z,8.40
2018-11-10T06:07:05.424Z,8.40
2018-11-10T06:09:33.907Z,8.40
2018-11-10T06:12:02.333Z,8.40
2018-11-10T06:14:30.756Z,8.40
2018-11-10T06:16:59.220Z,8.30
2018-11-10T06:19:27.653Z,8.30
2018-11-10T06:21:56.100Z,8.30
2018-11-10T06:24:24.571Z,8.30
2018-11-10T06:26:53.048Z,8.50
2018-11-10T06:29:21.489Z,8.50
2018-11-10T06:31:49.928Z,8.50
2018-11-10T06:34:18.387Z,8.30
2018-11-10T06:36:46.853Z,8.30
2018-11-10T06:39:16.146Z,8.30
2018-11-10T06:41:46.045Z,8.30
2018-11-10T06:44:14.476Z,8.40
2018-11-10T06:46:42.915Z,8.40
2018-11-10T06:49:11.345Z,8.40
2018-11-10T06:51:39.841Z,8.50
2018-11-10T06:54:08.295Z,8.50
2018-11-10T06:56:36.752Z,8.50
2018-11-10T06:59:06.355Z,8.50
2018-11-10T07:01:34.786Z,8.50
2018-11-10T07:04:03.339Z,8.60
2018-11-10T07:06:37.049Z,8.60
2018-11-10T07:09:08.301Z,8.60
2018-11-10T07:11:36.755Z,8.50
2018-11-10T07:14:05.475Z,8.60
2018-11-10T07:16:33.920Z,8.60
2018-11-10T07:19:02.365Z,8.70
2018-11-10T07:21:30.788Z,8.60
2018-11-10T07:23:59.236Z,8.80
2018-11-10T07:26:27.693Z,8.80
2018-11-10T07:28:56.131Z,8.80
2018-11-10T07:31:24.657Z,8.80
2018-11-10T07:33:53.112Z,8.90
2018-11-10T07:36:21.556Z,8.90
2018-11-10T07:38:49.996Z,8.90
2018-11-10T07:41:18.416Z,8.80
2018-11-10T07:43:46.875Z,8.80
2018-11-10T07:46:15.347Z,8.80
2018-11-10T07:48:43.788Z,8.90
2018-11-10T07:51:12.282Z,8.90
2018-11-10T07:53:40.705Z,8.90
2018-11-10T07:56:09.487Z,8.90
2018-11-10T07:58:37.942Z,8.90
2018-11-10T08:01:06.573Z,8.90
2018-11-10T08:03:35.027Z,8.90
2018-11-10T08:06:03.514Z,8.90
2018-11-10T08:08:31.932Z,9.00
2018-11-10T08:11:00.360Z,9.00
2018-11-10T08:13:28.805Z,8.90
2018-11-10T08:15:57.236Z,8.90
2018-11-10T08:18:25.741Z,9.00
2018-11-10T08:20:54.163Z,9.00
2018-11-10T08:23:22.598Z,9.10
2018-11-10T08:25:51.048Z,9.10
2018-11-10T08:28:19.496Z,9.10
2018-11-10T08:30:47.943Z,9.20
2018-11-10T08:33:16.384Z,9.10
2018-11-10T08:35:44.844Z,9.10
2018-11-10T08:38:13.272Z,9.10
2018-11-10T08:40:41.724Z,9.10
2018-11-10T08:43:10.144Z,9.10
2018-11-10T08:45:38.592Z,9.20
2018-11-10T08:48:07.044Z,9.20
2018-11-10T08:50:35.496Z,9.20
2018-11-10T08:53:03.939Z,9.20
2018-11-10T08:55:32.413Z,9.20
2018-11-10T08:58:00.862Z,9.30
2018-11-10T09:00:29.356Z,9.20
2018-11-10T09:02:57.788Z,9.30
2018-11-10T09:05:26.231Z,9.20
2018-11-10T09:07:54.664Z,9.30
2018-11-10T09:10:23.112Z,9.30
2018-11-10T09:12:51.584Z,9.30
2018-11-10T09:15:20.077Z,9.30
2018-11-10T09:17:48.571Z,9.30
2018-11-10T09:20:17.483Z,9.30
2018-11-10T09:22:45.949Z,9.30
2018-11-10T09:25:15.784Z,9.30
2018-11-10T09:27:44.306Z,9.40
2018-11-10T09:30:14.152Z,9.40
2018-11-10T09:32:42.829Z,9.50
2018-11-10T09:35:12.360Z,9.50
2018-11-10T09:37:40.832Z,9.50
2018-11-10T09:40:11.980Z,9.40
2018-11-10T09:42:40.600Z,9.40
2018-11-10T09:45:10.676Z,9.40
2018-11-10T09:47:39.274Z,9.50
2018-11-10T09:50:11.457Z,9.50
2018-11-10T09:52:40.004Z,9.60
2018-11-10T09:55:08.485Z,9.60
2018-11-10T09:57:37.519Z,9.50
2018-11-10T10:00:09.344Z,9.50
2018-11-10T10:02:38.302Z,9.60
2018-11-10T10:05:06.484Z,9.60
2018-11-10T10:07:34.927Z,9.60
2018-11-10T10:10:03.412Z,9.70
2018-11-10T10:12:31.877Z,9.70
2018-11-10T10:15:00.308Z,9.70
2018-11-10T10:17:28.767Z,9.60
2018-11-10T10:19:57.209Z,9.60
2018-11-10T10:22:25.657Z,9.60
2018-11-10T10:24:54.136Z,9.60
2018-11-10T10:27:22.644Z,9.60
2018-11-10T10:29:51.070Z,9.60
2018-11-10T10:32:19.529Z,9.70
2018-11-10T10:34:48.166Z,9.70
2018-11-10T10:37:16.436Z,9.80
2018-11-10T10:39:44.905Z,9.80
2018-11-10T10:42:13.355Z,9.80
2018-11-10T10:44:41.785Z,9.80
2018-11-10T10:47:10.260Z,9.80
2018-11-10T10:49:38.696Z,9.80
2018-11-10T10:52:07.140Z,9.90
2018-11-10T10:54:35.616Z,9.90
2018-11-10T10:57:04.132Z,10.00
2018-11-10T10:59:32.552Z,10.00
2018-11-10T11:02:06.292Z,10.10
2018-11-10T11:04:40.008Z,10.10
2018-11-10T11:07:08.447Z,10.20
2018-11-10T11:09:36.968Z,10.20
2018-11-10T11:12:05.380Z,10.30
2018-11-10T11:14:33.832Z,10.30
2018-11-10T11:17:02.250Z,10.20
2018-11-10T11:19:30.709Z,10.20
2018-11-10T11:21:59.181Z,10.20
2018-11-10T11:24:27.620Z,10.20
2018-11-10T11:26:56.068Z,10.30
2018-11-10T11:29:24.655Z,10.30
2018-11-10T11:31:53.040Z,10.30
2018-11-10T11:34:21.504Z,10.30
2018-11-10T11:36:50.032Z,10.40
2018-11-10T11:39:18.517Z,10.40
2018-11-10T11:41:47.025Z,10.30
2018-11-10T11:44:15.424Z,10.30
2018-11-10T11:46:43.859Z,10.30
2018-11-10T11:49:12.328Z,10.30
2018-11-10T11:51:40.845Z,10.20
2018-11-10T11:54:09.304Z,10.20
2018-11-10T11:56:37.745Z,10.30
2018-11-10T11:59:06.652Z,10.30
2018-11-10T12:01:35.092Z,10.30
2018-11-10T12:04:03.552Z,10.30
2018-11-10T12:06:32.012Z,10.40
2018-11-10T12:09:00.445Z,10.50
2018-11-10T12:11:28.895Z,10.60
2018-11-10T12:13:57.321Z,10.60
2018-11-10T12:16:27.712Z,10.70
2018-11-10T12:18:54.249Z,10.70
2018-11-10T12:21:22.719Z,10.70
2018-11-10T12:23:51.161Z,10.80
2018-11-10T12:26:19.648Z,10.80
2018-11-10T12:28:48.071Z,10.80
2018-11-10T12:31:16.536Z,10.90
2018-11-10T12:33:44.968Z,10.90
2018-11-10T12:36:13.416Z,11.00
2018-11-10T12:38:41.869Z,11.00
2018-11-10T12:41:10.337Z,11.00
2018-11-10T12:43:38.804Z,11.00
2018-11-10T12:46:07.256Z,11.00
2018-11-10T12:48:35.680Z,11.00
2018-11-10T12:51:04.429Z,11.00
2018-11-10T12:53:32.864Z,11.10
2018-11-10T12:56:01.321Z,11.10
2018-11-10T12:58:29.744Z,11.10
2018-11-10T13:00:58.197Z,11.20
2018-11-10T13:03:26.627Z,11.20
2018-11-10T13:05:55.076Z,11.20
2018-11-10T13:08:23.513Z,11.30
2018-11-10T13:10:52.001Z,11.30
2018-11-10T13:13:20.489Z,11.30
2018-11-10T13:15:48.936Z,11.30
2018-11-10T13:18:17.394Z,11.30
2018-11-10T13:20:45.890Z,11.30
2018-11-10T13:23:14.372Z,11.30
2018-11-10T13:25:42.812Z,11.30
2018-11-10T13:28:11.278Z,11.30
2018-11-10T13:30:39.717Z,11.30
2018-11-10T13:33:08.285Z,11.40
2018-11-10T13:35:36.740Z,11.40
2018-11-10T13:38:05.455Z,11.40
2018-11-10T13:40:33.900Z,11.50
2018-11-10T13:43:02.365Z,11.40
2018-11-10T13:45:30.930Z,11.40
2018-11-10T13:47:59.414Z,11.30
2018-11-10T13:50:27.929Z,11.30
2018-11-10T13:52:56.783Z,11.20
2018-11-10T13:55:24.823Z,11.20
2018-11-10T13:57:53.285Z,11.20
2018-11-10T14:00:21.729Z,11.20
2018-11-10T14:02:50.203Z,11.20
2018-11-10T14:05:18.659Z,11.10
2018-11-10T14:07:47.122Z,11.10
2018-11-10T14:10:16.240Z,11.00
2018-11-10T14:12:45.742Z,11.00
2018-11-10T14:15:14.148Z,11.00
2018-11-10T14:17:43.085Z,10.90
2018-11-10T14:20:13.392Z,10.90
2018-11-10T14:22:41.865Z,10.90
2018-11-10T14:25:11.990Z,10.90
2018-11-10T14:27:41.208Z,10.90
2018-11-10T14:30:11.832Z,10.80
2018-11-10T14:32:40.911Z,10.70
2018-11-10T14:35:10.128Z,10.70
2018-11-10T14:37:38.588Z,10.70
2018-11-10T14:40:08.731Z,10.60
2018-11-10T14:42:37.553Z,10.60
2018-11-10T14:45:07.476Z,10.50
2018-11-10T14:47:35.954Z,10.50
2018-11-10T14:50:04.653Z,10.50
2018-11-10T14:52:33.139Z,10.50
2018-11-10T14:55:01.564Z,10.40
2018-11-10T14:57:30.016Z,10.40
2018-11-10T14:59:58.459Z,10.40
2018-11-10T15:02:26.897Z,10.30
2018-11-10T15:04:55.400Z,10.30
2018-11-10T15:07:23.835Z,10.30
2018-11-10T15:09:52.284Z,10.30
2018-11-10T15:12:20.794Z,10.20
2018-11-10T15:14:49.237Z,10.20
2018-11-10T15:17:17.672Z,10.10
2018-11-10T15:19:46.139Z,10.10
2018-11-10T15:22:14.580Z,10.00
2018-11-10T15:24:43.042Z,10.00
2018-11-10T15:27:11.525Z,10.00
2018-11-10T15:29:40.032Z,9.90
2018-11-10T15:32:08.489Z,9.90
2018-11-10T15:34:36.928Z,9.80
2018-11-10T15:37:05.552Z,9.70
2018-11-10T15:39:34.040Z,9.70
2018-11-10T15:42:02.500Z,9.60
2018-11-10T15:44:30.936Z,9.50
2018-11-10T15:46:59.404Z,9.50
2018-11-10T15:49:27.944Z,9.50
2018-11-10T15:51:56.393Z,9.50
2018-11-10T15:54:24.833Z,9.50
2018-11-10T15:56:53.365Z,9.50
2018-11-10T15:59:21.798Z,9.50
2018-11-10T16:01:50.262Z,9.50
2018-11-10T16:04:18.720Z,9.40
2018-11-10T16:06:47.171Z,9.40
2018-11-10T16:09:15.699Z,9.40
2018-11-10T16:11:44.072Z,9.30
2018-11-10T16:14:12.508Z,9.20
2018-11-10T16:16:40.955Z,9.20
2018-11-10T16:19:09.383Z,9.20
2018-11-10T16:21:37.828Z,9.20
2018-11-10T16:24:06.291Z,9.20
2018-11-10T16:26:34.763Z,9.20
2018-11-10T16:29:03.201Z,9.20
2018-11-10T16:31:31.640Z,9.20
2018-11-10T16:34:00.068Z,9.10
2018-11-10T16:36:28.511Z,9.20
2018-11-10T16:38:56.944Z,9.10
2018-11-10T16:41:25.396Z,9.10
2018-11-10T16:43:53.833Z,9.10
2018-11-10T16:46:22.289Z,9.00
2018-11-10T16:48:50.729Z,9.00
2018-11-10T16:51:19.225Z,9.00
2018-11-10T16:53:47.665Z,8.90
2018-11-10T16:56:16.141Z,8.90
2018-11-10T16:58:44.640Z,8.80
2018-11-10T17:01:13.101Z,8.80
2018-11-10T17:03:41.536Z,8.80
2018-11-10T17:06:09.968Z,8.80
2018-11-10T17:08:38.460Z,8.70
2018-11-10T17:11:06.970Z,8.80
2018-11-10T17:13:35.436Z,8.70
2018-11-10T17:16:03.856Z,8.70
2018-11-10T17:18:32.311Z,8.60
2018-11-10T17:21:00.760Z,8.60
2018-11-10T17:23:29.207Z,8.50
2018-11-10T17:25:57.636Z,8.50
2018-11-10T17:28:26.096Z,8.50
2018-11-10T17:30:54.529Z,8.40
2018-11-10T17:33:22.977Z,8.40
2018-11-10T17:35:51.424Z,8.40
2018-11-10T17:38:19.880Z,8.40
2018-11-10T17:40:48.304Z,8.40
2018-11-10T17:43:16.763Z,8.50
2018-11-10T17:45:45.209Z,8.50
2018-11-10T17:48:13.725Z,8.50
2018-11-10T17:50:42.144Z,8.50
2018-11-10T17:53:10.737Z,8.50
2018-11-10T17:55:39.176Z,8.40
2018-11-10T17:58:07.634Z,8.40
2018-11-10T18:00:36.073Z,8.40
2018-11-10T18:03:04.836Z,8.40
2018-11-10T18:05:33.261Z,8.40
2018-11-10T18:08:01.749Z,8.30
2018-11-10T18:10:30.177Z,8.30
2018-11-10T18:12:58.652Z,8.40
2018-11-10T18:15:27.084Z,8.40
2018-11-10T18:17:55.516Z,8.40
2018-11-10T18:20:23.968Z,8.40
2018-11-10T18:22:53.237Z,8.50
2018-11-10T18:25:21.779Z,8.50
2018-11-10T18:27:50.256Z,8.50
2018-11-10T18:30:18.703Z,8.50
2018-11-10T18:32:47.263Z,8.40
2018-11-10T18:35:15.636Z,8.40
2018-11-10T18:37:44.075Z,8.40
2018-11-10T18:40:12.540Z,8.40
2018-11-10T18:42:40.998Z,8.40
2018-11-10T18:45:10.396Z,8.40
2018-11-10T18:47:39.380Z,8.40
2018-11-10T18:50:09.720Z,8.40
2018-11-10T18:52:38.156Z,8.50
2018-11-10T18:55:06.680Z,8.50
2018-11-10T18:57:35.236Z,8.50
2018-11-10T19:00:03.665Z,8.40
2018-11-10T19:02:32.096Z,8.40
2018-11-10T19:05:00.557Z,8.30
2018-11-10T19:07:29.023Z,8.30
2018-11-10T19:09:57.468Z,8.30
2018-11-10T19:12:25.928Z,8.30
2018-11-10T19:14:54.369Z,8.30
2018-11-10T19:17:22.804Z,8.30
2018-11-10T19:19:51.264Z,8.30
2018-11-10T19:22:19.699Z,8.30
2018-11-10T19:24:48.139Z,8.40
2018-11-10T19:27:16.583Z,8.40
2018-11-10T19:29:45.064Z,8.40
2018-11-10T19:32:13.500Z,8.40
2018-11-10T19:34:41.971Z,8.40
2018-11-10T19:37:10.403Z,8.40
2018-11-10T19:39:38.864Z,8.40
2018-11-10T19:42:07.291Z,8.40
2018-11-10T19:44:35.807Z,8.30
2018-11-10T19:47:04.216Z,8.30
2018-11-10T19:49:32.656Z,8.30
2018-11-10T19:52:01.323Z,8.20
2018-11-10T19:54:29.572Z,8.20
2018-11-10T19:56:58.035Z,8.20
2018-11-10T19:59:26.469Z,8.20
2018-11-10T20:01:54.920Z,8.30
2018-11-10T20:04:23.352Z,8.30
2018-11-10T20:06:51.878Z,8.30
2018-11-10T20:09:20.465Z,8.30
2018-11-10T20:11:48.928Z,8.30
2018-11-10T20:14:17.376Z,8.30
2018-11-10T20:16:45.849Z,8.30
2018-11-10T20:19:14.314Z,8.30
2018-11-10T20:21:43.064Z,8.30
2018-11-10T20:24:11.510Z,8.30
2018-11-10T20:26:40.040Z,8.30
2018-11-10T20:29:08.785Z,8.30
2018-11-10T20:31:37.327Z,8.30
2018-11-10T20:34:05.798Z,8.30
2018-11-10T20:36:34.268Z,8.30
2018-11-10T20:39:02.861Z,8.30
2018-11-10T20:41:31.277Z,8.30
2018-11-10T20:43:59.705Z,8.30
2018-11-10T20:46:28.148Z,8.30
2018-11-10T20:48:56.575Z,8.20
2018-11-10T20:51:25.032Z,8.20
2018-11-10T20:53:53.456Z,8.30
2018-11-10T20:56:21.980Z,8.30
2018-11-10T20:58:50.432Z,8.30
2018-11-10T21:01:18.884Z,8.30
2018-11-10T21:03:47.363Z,8.30
2018-11-10T21:06:15.856Z,8.30
2018-11-10T21:08:44.337Z,8.30
2018-11-10T21:11:12.776Z,8.20
2018-11-10T21:13:41.264Z,8.20
2018-11-10T21:16:09.736Z,8.20
2018-11-10T21:18:38.189Z,8.10
2018-11-10T21:21:06.644Z,8.10
2018-11-10T21:23:35.104Z,8.20
2018-11-10T21:26:03.556Z,8.20
2018-11-10T21:28:32.047Z,8.20
2018-11-10T21:31:00.512Z,8.20
2018-11-10T21:33:28.963Z,8.30
2018-11-10T21:35:57.413Z,8.30
2018-11-10T21:38:25.851Z,8.30
2018-11-10T21:40:54.300Z,8.30
2018-11-10T21:43:22.868Z,8.30
2018-11-10T21:45:51.283Z,8.30
2018-11-10T21:48:19.746Z,8.30
2018-11-10T21:50:48.215Z,8.30
2018-11-10T21:53:16.711Z,8.40
2018-11-10T21:55:46.296Z,8.30
2018-11-10T21:58:15.604Z,8.30
2018-11-10T22:00:44.098Z,8.30
2018-11-10T22:03:12.545Z,8.30
2018-11-10T22:05:40.981Z,8.30
2018-11-10T22:08:09.432Z,8.30
2018-11-10T22:10:37.860Z,8.30
2018-11-10T22:13:06.374Z,8.30
2018-11-10T22:15:34.870Z,8.30
2018-11-10T22:18:03.341Z,8.20
2018-11-10T22:20:31.771Z,8.20
2018-11-10T22:23:00.235Z,8.20
2018-11-10T22:25:28.735Z,8.30
2018-11-10T22:27:57.192Z,8.30
2018-11-10T22:30:25.641Z,8.30
2018-11-10T22:32:54.080Z,8.40
2018-11-10T22:35:22.536Z,8.40
2018-11-10T22:37:51.007Z,8.40
2018-11-10T22:40:20.791Z,8.40
2018-11-10T22:42:49.237Z,8.40
2018-11-10T22:45:19.093Z,8.40
2018-11-10T22:47:47.606Z,8.30
2018-11-10T22:50:17.483Z,8.30
2018-11-10T22:52:45.936Z,8.30
2018-11-10T22:55:14.412Z,8.30
2018-11-10T22:57:42.839Z,8.30
2018-11-10T23:00:16.539Z,8.30
2018-11-10T23:02:49.371Z,8.30
2018-11-10T23:05:18.510Z,8.30
2018-11-10T23:07:46.950Z,8.30
2018-11-10T23:10:15.905Z,8.20
2018-11-10T23:12:45.485Z,8.20
2018-11-10T23:15:13.972Z,8.20
2018-11-10T23:17:42.445Z,8.30
2018-11-10T23:20:14.043Z,8.20
2018-11-10T23:22:42.572Z,8.20
2018-11-10T23:25:12.417Z,8.30
2018-11-10T23:27:40.876Z,8.20
2018-11-10T23:30:12.853Z,8.30
2018-11-10T23:32:41.681Z,8.30
2018-11-10T23:35:10.853Z,8.20
2018-11-10T23:37:40.244Z,8.30
2018-11-10T23:40:10.589Z,8.20
2018-11-10T23:42:39.164Z,8.30
2018-11-10T23:45:08.101Z,8.30
2018-11-10T23:47:36.923Z,8.30
2018-11-10T23:50:05.975Z,8.30
2018-11-10T23:52:34.444Z,8.30
2018-11-10T23:55:02.927Z,8.30
2018-11-10T23:57:31.384Z,8.30
2018-11-10T23:59:59.832Z,8.30
